createdAt,value
2023-04-10T00:04:12.106Z,100667.03
2023-04-10T00:09:13.938Z,100670.66
2023-04-10T00:14:15.709Z,100666.50
2023-04-10T00:19:17.510Z,100660.97
2023-04-10T00:24:19.204Z,100661.72
2023-04-10T00:29:20.982Z,100665.19
2023-04-10T00:34:22.609Z,100660.63
2023-04-10T00:39:24.235Z,100649.25
2023-04-10T00:44:25.858Z,100644.91
2023-04-10T00:49:27.512Z,100648.97
2023-04-10T00:54:29.877Z,100650.66
2023-04-10T00:59:31.920Z,100641.03
2023-04-10T01:04:34.426Z,100647.78
2023-04-10T01:09:53.775Z,100652.19
2023-04-10T01:15:08.954Z,100659.72
2023-04-10T01:20:20.670Z,100656.25
2023-04-10T01:25:40.558Z,100661.75
2023-04-10T01:30:44.918Z,100666.13
2023-04-10T01:35:52.407Z,100672.97
2023-04-10T01:40:55.348Z,100673.72
2023-04-10T01:46:03.960Z,100665.41
2023-04-10T01:51:07.872Z,100655.88
2023-04-10T01:56:10.125Z,100657.00
2023-04-10T02:01:28.989Z,100648.44
2023-04-10T02:06:34.693Z,100647.22
2023-04-10T02:11:55.924Z,100642.75
2023-04-10T02:16:58.522Z,100639.78
2023-04-10T02:22:00.529Z,100641.34
2023-04-10T02:27:02.291Z,100642.38
2023-04-10T02:32:04.571Z,100639.13
2023-04-10T02:37:06.470Z,100633.78
2023-04-10T02:42:08.879Z,100631.00
2023-04-10T02:47:11.566Z,100635.25
2023-04-10T02:52:17.448Z,100629.81
2023-04-10T02:57:19.311Z,100631.03
2023-04-10T03:02:21.771Z,100635.00
2023-04-10T03:07:24.705Z,100629.81
2023-04-10T03:12:26.400Z,100637.69
2023-04-10T03:17:28.128Z,100638.25
2023-04-10T03:22:32.236Z,100640.09
2023-04-10T03:27:35.109Z,100632.94
2023-04-10T03:32:37.420Z,100632.78
2023-04-10T03:37:39.198Z,100634.63
2023-04-10T03:42:40.856Z,100638.88
2023-04-10T03:47:42.948Z,100638.00
2023-04-10T03:52:49.718Z,100633.09
2023-04-10T03:57:53.168Z,100646.66
2023-04-10T04:02:58.899Z,100638.97
2023-04-10T04:08:20.618Z,100651.66
2023-04-10T04:13:40.483Z,100647.09
2023-04-10T04:18:52.496Z,100658.06
2023-04-10T04:24:05.535Z,100649.25
2023-04-10T04:29:27.123Z,100664.88
2023-04-10T04:34:49.858Z,100669.91
2023-04-10T04:40:23.438Z,100669.16
2023-04-10T04:45:47.541Z,100663.19
2023-04-10T04:51:13.634Z,100662.25
2023-04-10T04:56:31.084Z,100661.72
2023-04-10T05:01:51.225Z,100657.03
2023-04-10T05:07:01.057Z,100666.97
2023-04-10T05:12:31.893Z,100675.63
2023-04-10T05:17:42.283Z,100670.09
2023-04-10T05:22:53.132Z,100665.28
2023-04-10T05:28:11.303Z,100677.47
2023-04-10T05:33:31.462Z,100680.22
2023-04-10T05:38:58.891Z,100679.44
2023-04-10T05:44:11.014Z,100682.72
2023-04-10T05:49:33.817Z,100678.19
2023-04-10T05:54:55.733Z,100679.44
2023-04-10T06:00:18.012Z,100680.00
2023-04-10T06:05:42.722Z,100674.94
2023-04-10T06:10:44.633Z,100683.34
2023-04-10T06:15:46.711Z,100671.53
2023-04-10T06:20:48.526Z,100665.19
2023-04-10T06:25:50.375Z,100677.03
2023-04-10T06:30:53.066Z,100669.84
2023-04-10T06:35:59.156Z,100652.78
2023-04-10T06:41:01.209Z,100656.66
2023-04-10T06:46:06.314Z,100652.41
2023-04-10T06:51:08.076Z,100650.25
2023-04-10T06:56:10.479Z,100657.34
2023-04-10T07:01:12.141Z,100651.88
2023-04-10T07:06:13.810Z,100651.97
2023-04-10T07:11:15.535Z,100637.34
2023-04-10T07:16:17.249Z,100644.13
2023-04-10T07:21:18.912Z,100630.25
2023-04-10T07:26:20.785Z,100629.84
2023-04-10T07:31:22.468Z,100622.66
2023-04-10T07:36:24.203Z,100610.06
2023-04-10T07:41:25.980Z,100603.63
2023-04-10T07:46:27.704Z,100605.91
2023-04-10T07:51:29.366Z,100595.16
2023-04-10T07:56:33.941Z,100589.00
2023-04-10T08:01:35.695Z,100594.78
2023-04-10T08:06:37.402Z,100582.78
2023-04-10T08:11:39.015Z,100580.00
2023-04-10T08:16:40.811Z,100566.06
2023-04-10T08:21:42.454Z,100577.75
2023-04-10T08:26:44.058Z,100569.78
2023-04-10T08:31:45.858Z,100574.63
2023-04-10T08:36:47.479Z,100563.53
2023-04-10T08:41:49.307Z,100560.72
2023-04-10T08:46:51.962Z,100553.38
2023-04-10T08:51:58.679Z,100545.75
2023-04-10T08:57:01.731Z,100550.69
2023-04-10T09:02:03.572Z,100546.47
2023-04-10T09:07:05.677Z,100539.22
2023-04-10T09:12:07.353Z,100529.22
2023-04-10T09:17:23.636Z,100525.75
2023-04-10T09:22:35.154Z,100518.13
2023-04-10T09:27:38.602Z,100523.63
2023-04-10T09:32:45.783Z,100520.81
2023-04-10T09:37:47.443Z,100511.00
2023-04-10T09:42:49.182Z,100508.06
2023-04-10T09:48:07.899Z,100502.22
2023-04-10T09:53:12.210Z,100493.59
2023-04-10T09:58:14.795Z,100479.41
2023-04-10T10:03:18.768Z,100456.38
2023-04-10T10:08:21.604Z,100456.69
2023-04-10T10:13:28.989Z,100452.59
2023-04-10T10:18:45.448Z,100442.75
2023-04-10T10:23:48.494Z,100433.34
2023-04-10T10:28:53.145Z,100422.06
2023-04-10T10:33:55.629Z,100423.38
2023-04-10T10:39:26.951Z,100407.41
2023-04-10T10:44:42.183Z,100407.03
2023-04-10T10:49:54.485Z,100407.66
2023-04-10T10:54:59.488Z,100396.28
2023-04-10T11:00:01.525Z,100391.44
2023-04-10T11:05:03.829Z,100368.84
2023-04-10T11:10:06.234Z,100367.94
2023-04-10T11:15:09.411Z,100350.78
2023-04-10T11:20:11.039Z,100357.09
2023-04-10T11:25:12.707Z,100338.41
2023-04-10T11:30:32.020Z,100333.09
2023-04-10T11:35:34.132Z,100325.88
2023-04-10T11:40:35.884Z,100315.16
2023-04-10T11:45:37.624Z,100297.75
2023-04-10T11:50:39.324Z,100299.88
2023-04-10T11:55:40.937Z,100286.81
2023-04-10T12:00:42.553Z,100278.75
2023-04-10T12:05:47.717Z,100286.84
2023-04-10T12:10:49.631Z,100265.41
2023-04-10T12:15:51.529Z,100263.41
2023-04-10T12:20:56.400Z,100273.41
2023-04-10T12:26:11.993Z,100275.28
2023-04-10T12:31:13.645Z,100266.81
2023-04-10T12:36:22.691Z,100258.34
2023-04-10T12:41:26.348Z,100256.78
2023-04-10T12:46:29.644Z,100255.78
2023-04-10T12:51:47.929Z,100249.28
2023-04-10T12:56:50.534Z,100240.22
2023-04-10T13:01:53.219Z,100238.47
2023-04-10T13:06:54.954Z,100234.41
2023-04-10T13:11:57.699Z,100235.66
2023-04-10T13:16:59.329Z,100219.31
2023-04-10T13:22:02.054Z,100215.88
2023-04-10T13:27:04.245Z,100210.19
2023-04-10T13:32:06.111Z,100200.28
2023-04-10T13:37:07.857Z,100188.84
2023-04-10T13:42:09.825Z,100184.28
2023-04-10T13:47:11.622Z,100165.63
2023-04-10T13:52:13.393Z,100167.84
2023-04-10T13:57:15.004Z,100148.44
2023-04-10T14:02:16.730Z,100151.63
2023-04-10T14:07:19.549Z,100147.09
2023-04-10T14:12:23.381Z,100141.72
2023-04-10T14:17:25.180Z,100138.63
2023-04-10T14:22:26.868Z,100123.50
2023-04-10T14:27:28.545Z,100127.41
2023-04-10T14:32:30.618Z,100128.88
2023-04-10T14:37:32.546Z,100109.25
2023-04-10T14:42:34.187Z,100100.06
2023-04-10T14:47:36.389Z,100099.78
2023-04-10T14:52:38.109Z,100096.00
2023-04-10T14:57:39.776Z,100090.25
2023-04-10T15:02:41.520Z,100082.81
2023-04-10T15:07:43.210Z,100066.00
2023-04-10T15:12:44.883Z,100065.59
2023-04-10T15:17:46.591Z,100057.81
2023-04-10T15:22:48.357Z,100041.91
2023-04-10T15:27:50.014Z,100035.41
2023-04-10T15:32:51.737Z,100027.19
2023-04-10T15:37:53.426Z,100021.81
2023-04-10T15:42:55.145Z,100025.84
2023-04-10T15:47:58.779Z,100014.31
2023-04-10T15:53:00.464Z,100012.03
2023-04-10T15:58:02.769Z,100008.22
2023-04-10T16:03:05.075Z,99993.28
2023-04-10T16:08:06.915Z,99985.28
2023-04-10T16:13:08.590Z,99978.78
2023-04-10T16:18:10.207Z,99967.31
2023-04-10T16:23:11.840Z,99969.66
2023-04-10T16:28:13.665Z,99959.38
2023-04-10T16:33:15.458Z,99971.19
2023-04-10T16:38:17.088Z,99952.00
2023-04-10T16:43:18.708Z,99949.25
2023-04-10T16:48:20.420Z,99950.97
2023-04-10T16:53:22.030Z,99947.75
2023-04-10T16:58:23.804Z,99943.38
2023-04-10T17:03:25.754Z,99932.16
2023-04-10T17:08:27.395Z,99923.78
2023-04-10T17:13:29.301Z,99926.31
2023-04-10T17:18:31.169Z,99916.09
2023-04-10T17:23:32.821Z,99910.38
2023-04-10T17:28:34.647Z,99909.19
2023-04-10T17:33:36.515Z,99910.72
2023-04-10T17:38:39.134Z,99909.53
2023-04-10T17:43:40.797Z,99907.19
2023-04-10T17:48:43.714Z,99893.81
2023-04-10T17:53:46.233Z,99893.16
2023-04-10T17:58:48.178Z,99903.78
2023-04-10T18:03:50.220Z,99886.59
2023-04-10T18:08:52.521Z,99880.25
2023-04-10T18:13:54.564Z,99880.88
2023-04-10T18:18:56.403Z,99881.00
2023-04-10T18:23:58.161Z,99878.44
2023-04-10T18:29:01.076Z,99867.94
2023-04-10T18:34:07.574Z,99868.78
2023-04-10T18:39:10.140Z,99868.78
2023-04-10T18:44:12.088Z,99869.16
2023-04-10T18:49:13.811Z,99851.16
2023-04-10T18:54:15.430Z,99853.06
2023-04-10T18:59:17.163Z,99844.47
2023-04-10T19:04:18.863Z,99846.84
2023-04-10T19:09:20.566Z,99844.69
2023-04-10T19:14:22.165Z,99832.53
2023-04-10T19:19:23.812Z,99823.19
2023-04-10T19:24:25.421Z,99815.94
2023-04-10T19:29:27.019Z,99811.22
2023-04-10T19:34:28.689Z,99803.66
2023-04-10T19:39:30.329Z,99794.25
2023-04-10T19:44:32.003Z,99793.59
2023-04-10T19:49:36.725Z,99786.88
2023-04-10T19:54:38.355Z,99793.22
2023-04-10T19:59:39.949Z,99791.72
2023-04-10T20:04:42.011Z,99788.22
2023-04-10T20:09:43.723Z,99786.13
2023-04-10T20:14:45.402Z,99774.34
2023-04-10T20:19:47.194Z,99764.34
2023-04-10T20:24:48.816Z,99744.22
2023-04-10T20:29:50.590Z,99737.16
2023-04-10T20:34:52.335Z,99726.94
2023-04-10T20:39:55.071Z,99713.38
2023-04-10T20:44:56.756Z,99714.31
2023-04-10T20:49:58.375Z,99709.25
2023-04-10T20:55:00.023Z,99698.69
2023-04-10T21:00:01.654Z,99699.50
2023-04-10T21:05:03.704Z,99699.78
2023-04-10T21:10:05.534Z,99687.56
2023-04-10T21:15:07.955Z,99695.22
2023-04-10T21:20:10.133Z,99699.56
2023-04-10T21:25:11.790Z,99688.91
2023-04-10T21:30:13.610Z,99690.38
2023-04-10T21:35:15.300Z,99675.59
2023-04-10T21:40:17.023Z,99670.78
2023-04-10T21:45:18.816Z,99655.16
2023-04-10T21:50:20.476Z,99644.13
2023-04-10T21:55:22.170Z,99640.25
2023-04-10T22:00:23.781Z,99634.28
2023-04-10T22:05:25.456Z,99646.50
2023-04-10T22:10:27.107Z,99639.41
2023-04-10T22:15:28.715Z,99627.03
2023-04-10T22:20:30.416Z,99621.13
2023-04-10T22:25:32.917Z,99616.94
2023-04-10T22:30:35.518Z,99610.66
2023-04-10T22:35:37.191Z,99612.69
2023-04-10T22:40:38.798Z,99597.78
2023-04-10T22:45:42.304Z,99584.50
2023-04-10T22:50:43.931Z,99587.81
2023-04-10T22:55:45.587Z,99567.56
2023-04-10T23:00:47.183Z,99554.03
2023-04-10T23:05:48.816Z,99544.66
2023-04-10T23:10:54.593Z,99538.09
2023-04-10T23:15:56.859Z,99535.59
2023-04-10T23:20:58.472Z,99533.72
2023-04-10T23:26:01.084Z,99517.75
2023-04-10T23:31:02.826Z,99500.28
2023-04-10T23:36:05.451Z,99510.75
2023-04-10T23:41:07.469Z,99495.09
2023-04-10T23:46:09.101Z,99479.97
2023-04-10T23:51:10.807Z,99463.09
2023-04-10T23:56:12.402Z,99449.09
